Time;durP1;ratioP1;P1;durP2;ratioP2;P2;SDS_P1;SDS_P2;PMS_P1;PMS_P2;Temp;Humidity;BMP_temperature;BMP_pressure;BME280_temperature;BME280_humidity;BME280_pressure;Samples;Min_cycle;Max_cycle;Signal;HPM_P1;HPM_P2
2022/03/08 00:02:05;;;;;;;8.97;8.77;;;-1.80;99.90;;;;;;4944834;28;20234;-82
2022/03/08 00:07:20;;;;;;;9.60;9.30;;;-1.80;99.90;;;;;;4944972;28;20225;-82
2022/03/08 00:09:50;;;;;;;9.27;8.97;;;-1.80;99.90;;;;;;4944863;28;20254;-83
2022/03/08 00:12:19;;;;;;;9.57;9.27;;;-1.90;99.90;;;;;;4932821;28;20243;-83
2022/03/08 00:14:48;;;;;;;9.50;9.20;;;-1.90;99.90;;;;;;4945160;29;20246;-83
2022/03/08 00:17:17;;;;;;;9.47;9.17;;;-1.90;99.90;;;;;;4949215;28;20230;-83
2022/03/08 00:19:55;;;;;;;9.40;9.10;;;-1.90;99.90;;;;;;4948794;28;20248;-83
2022/03/08 00:22:25;;;;;;;9.57;9.27;;;-1.90;99.90;;;;;;4948362;28;20270;-83
2022/03/08 00:24:54;;;;;;;9.40;9.10;;;-1.90;99.90;;;;;;4948539;28;20226;-83
2022/03/08 00:27:24;;;;;;;9.47;9.17;;;-1.90;99.90;;;;;;4948176;28;20297;-83
2022/03/08 00:29:53;;;;;;;9.60;9.30;;;-1.90;99.90;;;;;;4946867;28;20272;-83
2022/03/08 00:32:23;;;;;;;9.57;9.27;;;-1.90;99.90;;;;;;4947917;28;20240;-82
2022/03/08 00:35:01;;;;;;;9.63;9.33;;;-2.00;99.90;;;;;;4947872;29;20229;-83
2022/03/08 00:37:30;;;;;;;9.57;9.27;;;-2.20;99.90;;;;;;4931939;28;20234;-83
2022/03/08 00:40:00;;;;;;;9.77;9.47;;;-2.30;99.90;;;;;;4928595;29;20241;-83
2022/03/08 00:42:29;;;;;;;9.90;9.60;;;-2.40;99.90;;;;;;4928056;29;20279;-83
2022/03/08 00:44:58;;;;;;;10.17;9.87;;;-2.40;99.90;;;;;;4929124;29;20301;-83
2022/03/08 00:47:28;;;;;;;9.63;9.33;;;-2.50;99.90;;;;;;4938756;29;20220;-83
2022/03/08 00:50:14;;;;;;;9.53;9.23;;;-2.60;99.90;;;;;;4933701;29;20235;-83
2022/03/08 00:52:45;;;;;;;9.63;9.33;;;-2.60;99.90;;;;;;4928880;29;20266;-83
2022/03/08 00:55:18;;;;;;;9.47;9.17;;;-2.70;99.90;;;;;;4929358;29;20281;-83
2022/03/08 00:57:47;;;;;;;8.93;8.70;;;-2.70;99.90;;;;;;4939536;29;20212;-82
2022/03/08 01:00:23;;;;;;;9.70;9.40;;;-2.70;99.90;;;;;;4935565;29;20243;-82
2022/03/08 01:02:53;;;;;;;9.83;9.53;;;-2.70;99.90;;;;;;4932530;29;20271;-82
2022/03/08 01:05:31;;;;;;;9.43;9.13;;;-2.70;99.90;;;;;;4930775;29;20303;-82
2022/03/08 01:08:03;;;;;;;9.90;9.60;;;-2.70;99.90;;;;;;4930212;29;20216;-82
2022/03/08 01:13:15;;;;;;;9.67;9.37;;;-2.70;99.90;;;;;;4944623;28;20233;-81
2022/03/08 01:15:45;;;;;;;9.53;9.23;;;-2.80;99.90;;;;;;4934310;29;20303;-83
2022/03/08 01:18:14;;;;;;;10.13;9.83;;;-3.00;99.90;;;;;;4930235;29;20258;-82
2022/03/08 01:20:46;;;;;;;10.07;9.77;;;-3.10;99.90;;;;;;4929844;29;20253;-82
2022/03/08 01:23:22;;;;;;;9.80;9.50;;;-3.20;99.90;;;;;;4928770;29;20239;-82
2022/03/08 01:25:51;;;;;;;9.93;9.63;;;-3.20;99.90;;;;;;4927646;29;20235;-82
2022/03/08 01:28:20;;;;;;;9.90;9.60;;;-3.20;99.90;;;;;;4928520;29;20279;-82
2022/03/08 01:30:50;;;;;;;9.70;9.40;;;-3.10;99.90;;;;;;4926773;29;20243;-81
2022/03/08 01:33:20;;;;;;;9.80;9.50;;;-3.10;99.90;;;;;;4927269;29;20264;-82
2022/03/08 01:35:52;;;;;;;9.50;9.20;;;-3.10;99.90;;;;;;4927186;29;20235;-82
2022/03/08 01:38:20;;;;;;;10.10;9.80;;;-3.00;99.90;;;;;;4927194;29;20232;-82
2022/03/08 01:40:48;;;;;;;9.90;9.60;;;-3.00;99.90;;;;;;4927844;29;20273;-83
2022/03/08 01:43:18;;;;;;;9.47;9.17;;;-3.00;99.90;;;;;;4927203;29;20250;-82
2022/03/08 01:45:47;;;;;;;9.90;9.60;;;-2.90;99.90;;;;;;4927401;29;20250;-82
2022/03/08 01:48:17;;;;;;;10.17;9.87;;;-2.90;99.90;;;;;;4927969;29;20243;-82
2022/03/08 01:50:49;;;;;;;9.80;9.50;;;-2.90;99.90;;;;;;4926953;29;20311;-82
2022/03/08 01:53:20;;;;;;;9.70;9.40;;;-2.90;99.90;;;;;;4927995;29;20264;-83
2022/03/08 01:55:48;;;;;;;9.57;9.27;;;-2.90;99.90;;;;;;4927105;29;20224;-82
2022/03/08 01:58:16;;;;;;;9.80;9.50;;;-3.00;99.90;;;;;;4927436;29;20231;-83
2022/03/08 02:00:46;;;;;;;9.47;9.17;;;-3.00;99.90;;;;;;4927111;29;20251;-82
2022/03/08 02:03:15;;;;;;;9.60;9.30;;;-3.00;99.90;;;;;;4926990;29;20720;-82
2022/03/08 02:05:45;;;;;;;9.53;9.23;;;-3.00;99.90;;;;;;4927273;29;20242;-82
2022/03/08 02:08:14;;;;;;;9.70;9.40;;;-2.90;99.90;;;;;;4926927;29;20211;-83
2022/03/08 02:13:32;;;;;;;9.67;9.37;;;-2.90;99.90;;;;;;4926869;29;20234;-82
2022/03/08 02:16:00;;;;;;;9.27;8.97;;;-3.10;99.90;;;;;;4927014;29;20242;-82
2022/03/08 02:18:29;;;;;;;9.83;9.53;;;-3.10;99.90;;;;;;4927613;29;20229;-82
2022/03/08 02:21:09;;;;;;;9.73;9.43;;;-3.10;99.90;;;;;;4927293;29;20310;-82
2022/03/08 02:23:39;;;;;;;9.97;9.67;;;-3.10;99.90;;;;;;4927200;29;20243;-82
2022/03/08 02:26:07;;;;;;;9.83;9.53;;;-3.10;99.90;;;;;;4927266;29;20308;-83
2022/03/08 02:28:38;;;;;;;9.73;9.43;;;-3.10;99.90;;;;;;4927013;29;20255;-82
2022/03/08 02:31:06;;;;;;;9.60;9.30;;;-3.10;99.90;;;;;;4926526;29;20314;-82
2022/03/08 02:33:35;;;;;;;9.57;9.27;;;-3.20;99.90;;;;;;4926934;29;20242;-82
2022/03/08 02:36:15;;;;;;;9.60;9.30;;;-3.30;99.90;;;;;;4926339;29;20243;-82
2022/03/08 02:38:46;;;;;;;9.93;9.63;;;-3.40;99.90;;;;;;4926146;29;20223;-82
2022/03/08 02:41:14;;;;;;;9.60;9.30;;;-3.50;99.90;;;;;;4926483;29;20235;-82
2022/03/08 02:43:42;;;;;;;9.63;9.33;;;-3.50;99.90;;;;;;4926891;29;20232;-82
2022/03/08 02:46:11;;;;;;;10.00;9.70;;;-3.50;99.90;;;;;;4927232;29;20240;-82
2022/03/08 02:48:41;;;;;;;9.10;8.80;;;-3.60;99.90;;;;;;4926970;29;20227;-82
2022/03/08 02:51:12;;;;;;;9.70;9.40;;;-3.70;99.90;;;;;;4927261;29;20247;-82
2022/03/08 02:53:40;;;;;;;9.67;9.37;;;-3.80;99.90;;;;;;4927751;29;20246;-82
2022/03/08 02:56:08;;;;;;;9.87;9.57;;;-3.90;99.90;;;;;;4926546;29;20246;-82
2022/03/08 02:58:37;;;;;;;9.47;9.17;;;-3.90;99.90;;;;;;4926918;29;20236;-82
2022/03/08 03:01:07;;;;;;;10.00;9.70;;;-3.90;99.90;;;;;;4926916;29;20249;-82
2022/03/08 03:03:37;;;;;;;9.70;9.40;;;-3.90;99.90;;;;;;4926838;29;20240;-82
2022/03/08 03:06:06;;;;;;;10.07;9.77;;;-3.90;99.90;;;;;;4927983;29;20250;-82
2022/03/08 03:08:44;;;;;;;9.73;9.43;;;-4.00;99.90;;;;;;4937200;29;20220;-82
2022/03/08 03:11:16;;;;;;;9.57;9.27;;;-4.00;99.90;;;;;;4932567;29;20239;-82
2022/03/08 03:13:44;;;;;;;9.80;9.50;;;-3.90;99.90;;;;;;4932189;28;20289;-83
2022/03/08 03:16:13;;;;;;;9.77;9.47;;;-3.90;99.90;;;;;;4942850;28;20233;-82
2022/03/08 03:18:46;;;;;;;9.47;9.17;;;-3.90;99.90;;;;;;4929650;29;20231;-82
2022/03/08 03:21:14;;;;;;;9.70;9.40;;;-3.80;99.90;;;;;;4927201;29;20239;-82
2022/03/08 03:23:49;;;;;;;9.50;9.20;;;-3.80;99.90;;;;;;4927816;29;20314;-82
2022/03/08 03:26:19;;;;;;;9.60;9.30;;;-3.80;99.90;;;;;;4926256;29;20247;-82
2022/03/08 03:28:48;;;;;;;9.63;9.33;;;-3.80;99.90;;;;;;4927917;29;20211;-82
2022/03/08 03:31:20;;;;;;;9.90;9.60;;;-3.80;99.90;;;;;;4933706;29;20243;-82
2022/03/08 03:33:48;;;;;;;9.80;9.50;;;-3.80;99.90;;;;;;4929775;29;20965;-82
2022/03/08 03:36:18;;;;;;;9.20;8.90;;;-3.80;99.90;;;;;;4927394;29;20241;-82
2022/03/08 03:38:49;;;;;;;9.80;9.50;;;-3.80;99.90;;;;;;4926352;29;20258;-82
2022/03/08 03:41:17;;;;;;;9.43;9.13;;;-3.70;99.90;;;;;;4925266;29;20240;-82
2022/03/08 03:43:49;;;;;;;9.87;9.57;;;-3.70;99.90;;;;;;4925513;29;20236;-83
2022/03/08 03:46:28;;;;;;;9.43;9.13;;;-3.70;99.90;;;;;;4924991;29;20235;-83
2022/03/08 03:49:03;;;;;;;9.87;9.57;;;-3.70;99.90;;;;;;4925527;29;20223;-83
2022/03/08 03:51:33;;;;;;;9.53;9.23;;;-3.70;99.90;;;;;;4924313;29;20314;-83
2022/03/08 03:56:58;;;;;;;9.50;9.20;;;-3.70;99.90;;;;;;4924755;29;20299;-83
2022/03/08 03:59:29;;;;;;;9.40;9.10;;;-3.70;99.90;;;;;;4924715;29;20228;-83
2022/03/08 04:02:00;;;;;;;10.00;9.70;;;-3.70;99.90;;;;;;4928271;29;20224;-83
2022/03/08 04:04:28;;;;;;;9.80;9.50;;;-3.70;99.90;;;;;;4941437;28;20266;-82
2022/03/08 04:06:56;;;;;;;10.20;9.90;;;-3.80;99.90;;;;;;4941931;28;20316;-82
2022/03/08 04:09:43;;;;;;;10.07;9.77;;;-3.90;99.90;;;;;;4941140;28;20231;-82
2022/03/08 04:12:13;;;;;;;9.90;9.60;;;-3.90;99.90;;;;;;4941587;28;20244;-81
2022/03/08 04:14:42;;;;;;;10.10;9.80;;;-4.00;99.90;;;;;;4942035;28;20223;-81
2022/03/08 04:17:12;;;;;;;9.90;9.60;;;-4.00;99.90;;;;;;4941673;29;20231;-82
2022/03/08 04:19:42;;;;;;;10.03;9.73;;;-4.00;99.90;;;;;;4937026;29;20284;-82
2022/03/08 04:22:12;;;;;;;9.90;9.60;;;-4.00;99.90;;;;;;4928022;29;20250;-82
2022/03/08 04:24:42;;;;;;;9.40;9.10;;;-4.00;99.90;;;;;;4926974;29;20223;-82
2022/03/08 04:27:10;;;;;;;9.90;9.60;;;-4.00;99.90;;;;;;4926261;29;20240;-84
2022/03/08 04:29:41;;;;;;;10.00;9.70;;;-4.00;99.90;;;;;;4926087;29;20242;-82
2022/03/08 04:32:09;;;;;;;9.87;9.57;;;-4.00;99.90;;;;;;4925957;29;20236;-83
2022/03/08 04:34:38;;;;;;;9.70;9.40;;;-4.00;99.90;;;;;;4926280;29;20240;-82
2022/03/08 04:37:07;;;;;;;10.00;9.70;;;-4.00;99.90;;;;;;4928390;29;20227;-83
2022/03/08 04:39:40;;;;;;;9.77;9.47;;;-4.10;99.90;;;;;;4930809;29;20247;-83
2022/03/08 04:42:15;;;;;;;10.00;9.70;;;-4.00;99.90;;;;;;4927484;29;20235;-84
2022/03/08 04:44:43;;;;;;;9.93;9.63;;;-4.00;99.90;;;;;;4925456;29;20222;-82
2022/03/08 04:47:14;;;;;;;9.47;9.17;;;-4.10;99.90;;;;;;4931549;28;20365;-82
2022/03/08 04:49:52;;;;;;;9.30;9.00;;;-4.10;99.90;;;;;;4941303;28;20219;-81
2022/03/08 04:52:22;;;;;;;9.80;9.50;;;-4.10;99.90;;;;;;4939192;28;20239;-82
2022/03/08 05:00:21;;;;;;;9.90;9.60;;;-4.10;99.90;;;;;;4928804;28;20233;-82
2022/03/08 05:02:53;;;;;;;10.37;10.07;;;-4.10;99.90;;;;;;4927884;29;20241;-82
2022/03/08 05:05:25;;;;;;;10.10;9.80;;;-4.10;99.90;;;;;;4929462;29;20219;-81
2022/03/08 05:07:55;;;;;;;10.00;9.70;;;-4.10;99.90;;;;;;4929873;29;20271;-82
2022/03/08 05:10:25;;;;;;;10.20;9.90;;;-4.10;99.90;;;;;;4929121;29;20236;-83
2022/03/08 05:13:01;;;;;;;10.40;10.10;;;-4.10;99.90;;;;;;4929047;29;20235;-82
2022/03/08 05:15:31;;;;;;;10.27;9.97;;;-4.10;99.90;;;;;;4928734;29;20281;-82
2022/03/08 05:17:59;;;;;;;10.17;9.87;;;-4.10;99.90;;;;;;4927529;29;20239;-81
2022/03/08 05:20:32;;;;;;;9.93;9.63;;;-4.10;99.90;;;;;;4927157;29;20239;-82
2022/03/08 05:23:00;;;;;;;10.10;9.80;;;-4.10;99.90;;;;;;4927513;29;20238;-82
2022/03/08 05:25:28;;;;;;;9.70;9.40;;;-4.10;99.90;;;;;;4927291;29;20235;-84
2022/03/08 05:28:17;;;;;;;10.20;9.90;;;-4.10;99.90;;;;;;4935777;29;20227;-82
2022/03/08 05:30:48;;;;;;;10.57;10.27;;;-4.10;99.90;;;;;;4935351;29;20239;-83
2022/03/08 05:33:16;;;;;;;10.43;10.13;;;-4.20;99.90;;;;;;4941425;28;20239;-82
2022/03/08 05:35:47;;;;;;;10.97;10.67;;;-4.20;99.90;;;;;;4939101;28;20228;-82
2022/03/08 05:41:09;;;;;;;10.60;10.30;;;-4.20;99.90;;;;;;4926458;29;20232;-82
2022/03/08 05:46:51;;;;;;;10.70;10.40;;;-4.20;99.90;;;;;;4930590;29;20322;-83
2022/03/08 05:49:30;;;;;;;10.50;10.20;;;-4.20;99.90;;;;;;4929616;29;20251;-83
2022/03/08 05:52:00;;;;;;;10.40;10.10;;;-4.30;99.90;;;;;;4928669;29;20244;-82
2022/03/08 05:54:34;;;;;;;10.60;10.30;;;-4.30;99.90;;;;;;4928476;29;20238;-82
2022/03/08 05:57:02;;;;;;;10.60;10.30;;;-4.30;99.90;;;;;;4928686;29;20231;-82
2022/03/08 05:59:34;;;;;;;10.90;10.60;;;-4.30;99.90;;;;;;4954197;23;20247;-82
2022/03/08 06:02:02;;;;;;;10.40;10.10;;;-4.30;99.90;;;;;;4987929;28;20451;-84
2022/03/08 06:04:29;;;;;;;10.27;9.97;;;-4.30;99.90;;;;;;4995086;28;20314;-84
2022/03/08 06:06:57;;;;;;;10.13;9.83;;;-4.20;99.90;;;;;;5000576;28;20235;-85
2022/03/08 06:09:25;;;;;;;9.97;9.67;;;-4.10;99.90;;;;;;5000338;28;20214;-84
2022/03/08 06:11:56;;;;;;;10.30;10.00;;;-4.10;99.90;;;;;;4996277;28;20229;-85
2022/03/08 06:14:25;;;;;;;10.40;10.10;;;-4.00;99.90;;;;;;4998709;28;20265;-84
2022/03/08 06:16:57;;;;;;;10.40;10.10;;;-3.90;99.90;;;;;;5000447;28;20269;-84
2022/03/08 06:19:25;;;;;;;11.00;10.70;;;-4.00;99.90;;;;;;4992112;28;20231;-85
2022/03/08 06:21:54;;;;;;;10.90;10.60;;;-4.00;99.90;;;;;;4981468;28;20222;-86
2022/03/08 06:24:22;;;;;;;10.80;10.50;;;-4.00;99.90;;;;;;4988727;28;20229;-84
2022/03/08 06:26:51;;;;;;;10.70;10.40;;;-4.00;99.90;;;;;;4995658;28;20230;-84
2022/03/08 06:29:20;;;;;;;11.00;10.70;;;-4.00;99.90;;;;;;4981067;28;20221;-86
2022/03/08 06:31:48;;;;;;;10.77;10.47;;;-3.90;99.90;;;;;;4981767;28;20237;-83
2022/03/08 06:34:17;;;;;;;10.80;10.50;;;-3.90;99.90;;;;;;4981008;28;20298;-82
2022/03/08 06:36:45;;;;;;;10.80;10.50;;;-3.80;99.90;;;;;;4980490;28;20238;-82
2022/03/08 06:39:14;;;;;;;10.67;10.37;;;-3.70;99.90;;;;;;4980677;28;20249;-83
2022/03/08 06:41:42;;;;;;;10.80;10.50;;;-3.70;99.90;;;;;;4981515;28;20210;-83
2022/03/08 06:44:11;;;;;;;10.50;10.20;;;-3.60;99.90;;;;;;4982682;28;20229;-83
2022/03/08 06:46:46;;;;;;;10.53;10.23;;;-3.50;99.90;;;;;;4982924;28;20208;-83
2022/03/08 06:49:16;;;;;;;10.27;9.97;;;-3.40;99.90;;;;;;4981960;28;20281;-82
2022/03/08 06:51:44;;;;;;;10.20;9.90;;;-3.30;99.90;;;;;;4980569;28;20245;-84
2022/03/08 06:54:12;;;;;;;10.10;9.80;;;-3.20;99.90;;;;;;4981181;28;20246;-82
2022/03/08 06:56:40;;;;;;;9.83;9.53;;;-3.10;99.90;;;;;;4982228;28;20211;-83
2022/03/08 06:59:08;;;;;;;9.90;9.60;;;-3.00;99.90;;;;;;4982638;28;20230;-83
2022/03/08 07:01:37;;;;;;;9.80;9.50;;;-2.80;99.90;;;;;;4982414;28;20217;-84
2022/03/08 07:04:06;;;;;;;9.80;9.50;;;-2.80;99.90;;;;;;4981875;28;20258;-84
2022/03/08 07:06:35;;;;;;;9.50;9.20;;;-2.60;99.90;;;;;;4982690;28;20210;-84
2022/03/08 07:09:04;;;;;;;9.73;9.43;;;-2.50;99.90;;;;;;4982282;28;20223;-83
2022/03/08 07:11:33;;;;;;;10.10;9.80;;;-2.40;99.90;;;;;;4980369;28;20222;-84
2022/03/08 07:14:01;;;;;;;10.10;9.80;;;-2.30;99.90;;;;;;4980875;28;20259;-84
2022/03/08 07:16:29;;;;;;;10.03;9.73;;;-2.10;99.90;;;;;;4981417;28;20233;-83
2022/03/08 07:18:57;;;;;;;10.20;9.90;;;-2.00;99.90;;;;;;4978366;28;20244;-83
2022/03/08 07:21:24;;;;;;;10.03;9.73;;;-1.90;99.90;;;;;;4968474;28;20232;-83
2022/03/08 07:23:54;;;;;;;10.13;9.83;;;-1.70;99.90;;;;;;4963463;28;20233;-83
2022/03/08 07:26:22;;;;;;;10.17;9.87;;;-1.60;99.90;;;;;;4962128;28;20240;-84
2022/03/08 07:28:50;;;;;;;10.03;9.73;;;-1.50;99.90;;;;;;4962559;28;20248;-83
2022/03/08 07:31:18;;;;;;;10.33;10.03;;;-1.40;99.90;;;;;;4979353;28;20241;-84
2022/03/08 07:33:46;;;;;;;10.20;9.90;;;-1.30;99.90;;;;;;4970983;28;20234;-84
2022/03/08 07:36:14;;;;;;;10.40;10.10;;;-1.20;99.90;;;;;;4962316;28;20289;-83
2022/03/08 07:38:42;;;;;;;10.60;10.30;;;-1.10;99.90;;;;;;4961850;28;20229;-83
2022/03/08 07:41:14;;;;;;;9.80;9.50;;;-0.90;99.90;;;;;;4963094;28;20230;-84
2022/03/08 07:46:27;;;;;;;10.37;10.07;;;-0.70;99.90;;;;;;4959051;28;20244;-85
2022/03/08 07:48:55;;;;;;;10.40;10.10;;;-0.70;99.90;;;;;;4962805;28;20233;-84
2022/03/08 07:51:24;;;;;;;10.40;10.10;;;-0.60;99.90;;;;;;4959442;28;20238;-84
2022/03/08 07:53:52;;;;;;;10.50;10.20;;;-0.40;99.90;;;;;;4958750;28;20226;-83
2022/03/08 07:56:22;;;;;;;10.40;10.10;;;-0.30;99.90;;;;;;4959354;28;20238;-84
2022/03/08 07:58:50;;;;;;;10.30;10.00;;;-0.20;99.90;;;;;;4960899;28;20226;-84
2022/03/08 08:01:18;;;;;;;9.93;9.63;;;-0.10;99.90;;;;;;4962310;28;20286;-84
2022/03/08 08:03:46;;;;;;;9.90;9.60;;;0.00;99.90;;;;;;4975880;28;20237;-84
2022/03/08 08:06:14;;;;;;;10.17;9.87;;;0.10;99.90;;;;;;4974091;28;20238;-84
2022/03/08 08:08:41;;;;;;;10.30;10.00;;;0.20;99.90;;;;;;4959568;28;20245;-84
2022/03/08 08:11:10;;;;;;;10.40;10.10;;;0.30;99.90;;;;;;4959641;28;20264;-84
2022/03/08 08:13:39;;;;;;;10.30;10.00;;;0.30;99.90;;;;;;4959770;28;20245;-84
2022/03/08 08:16:07;;;;;;;10.23;9.93;;;0.50;99.90;;;;;;4962551;28;20292;-83
2022/03/08 08:18:34;;;;;;;10.60;10.30;;;0.60;99.90;;;;;;4978009;28;20238;-81
2022/03/08 08:21:04;;;;;;;10.73;10.43;;;0.70;99.90;;;;;;4977449;28;20328;-83
2022/03/08 08:23:32;;;;;;;10.57;10.27;;;0.80;99.90;;;;;;4978258;28;20238;-82
2022/03/08 08:26:08;;;;;;;10.43;10.13;;;1.10;99.90;;;;;;4977036;28;20237;-81
2022/03/08 08:28:41;;;;;;;10.50;10.20;;;1.20;99.90;;;;;;4978968;28;20228;-82
2022/03/08 08:31:09;;;;;;;10.57;10.27;;;1.40;99.90;;;;;;4963105;28;20266;-81
2022/03/08 08:33:37;;;;;;;10.87;10.57;;;1.60;99.90;;;;;;4959391;28;20238;-82
2022/03/08 08:36:06;;;;;;;11.07;10.77;;;1.70;99.90;;;;;;4968729;28;20237;-82
2022/03/08 08:38:35;;;;;;;10.60;10.30;;;1.80;99.90;;;;;;4966552;28;20242;-82
2022/03/08 08:41:03;;;;;;;10.50;10.20;;;2.00;99.90;;;;;;4965266;28;20238;-81
2022/03/08 08:43:31;;;;;;;10.17;9.87;;;2.20;99.90;;;;;;4964631;28;20328;-82
2022/03/08 08:46:00;;;;;;;10.20;9.90;;;2.40;99.90;;;;;;4976013;28;20234;-81
2022/03/08 08:48:28;;;;;;;10.03;9.73;;;2.50;99.90;;;;;;4964183;28;20253;-80
2022/03/08 08:50:56;;;;;;;10.30;10.00;;;2.80;99.90;;;;;;4965578;28;20242;-81
2022/03/08 08:53:24;;;;;;;10.50;10.20;;;3.00;99.90;;;;;;4972685;28;20230;-82
2022/03/08 08:55:52;;;;;;;10.70;10.40;;;3.30;99.90;;;;;;4964189;28;20241;-82
2022/03/08 08:58:20;;;;;;;10.90;10.60;;;3.60;99.90;;;;;;4964144;28;20265;-81
2022/03/08 09:00:48;;;;;;;10.80;10.50;;;3.70;99.90;;;;;;4962890;28;20253;-81
2022/03/08 09:03:17;;;;;;;10.80;10.50;;;4.00;99.90;;;;;;4963948;28;20234;-80
2022/03/08 09:05:46;;;;;;;11.10;10.80;;;4.20;99.90;;;;;;4965580;28;20245;-82
2022/03/08 09:08:15;;;;;;;10.97;10.67;;;4.50;99.90;;;;;;4975447;28;20238;-81
2022/03/08 09:10:44;;;;;;;10.93;10.63;;;4.70;99.90;;;;;;4962981;28;20239;-81
2022/03/08 09:13:12;;;;;;;10.70;10.40;;;5.00;99.90;;;;;;4967336;28;20241;-82
2022/03/08 09:15:40;;;;;;;10.83;10.53;;;5.10;99.90;;;;;;4962864;28;20233;-83
2022/03/08 09:18:08;;;;;;;11.00;10.70;;;5.20;99.90;;;;;;4963662;28;20214;-81
2022/03/08 09:20:38;;;;;;;10.80;10.50;;;5.40;99.90;;;;;;4963256;28;20242;-83
2022/03/08 09:23:07;;;;;;;10.53;10.23;;;5.60;99.90;;;;;;4963480;28;20233;-82
2022/03/08 09:25:35;;;;;;;10.70;10.40;;;5.90;99.90;;;;;;4962713;28;20238;-82
2022/03/08 09:28:05;;;;;;;10.70;10.40;;;6.10;99.90;;;;;;4962795;28;20707;-82
2022/03/08 09:30:35;;;;;;;10.90;10.60;;;6.30;99.90;;;;;;4962764;28;20321;-82
2022/03/08 09:33:03;;;;;;;10.80;10.50;;;6.50;99.90;;;;;;4963334;28;20268;-83
2022/03/08 09:35:32;;;;;;;10.80;10.50;;;6.60;99.90;;;;;;4963083;28;20226;-83
2022/03/08 09:38:02;;;;;;;10.73;10.43;;;6.80;99.90;;;;;;4963833;28;20226;-82
2022/03/08 09:40:30;;;;;;;10.80;10.50;;;6.90;99.90;;;;;;4963331;28;20344;-82
2022/03/08 09:42:58;;;;;;;10.53;10.23;;;7.00;99.90;;;;;;4963133;28;20264;-83
2022/03/08 09:45:26;;;;;;;10.80;10.50;;;7.20;99.90;;;;;;4962502;28;20276;-83
2022/03/08 09:47:54;;;;;;;10.90;10.60;;;7.50;99.90;;;;;;4966149;28;20218;-83
2022/03/08 09:50:22;;;;;;;10.73;10.43;;;7.90;99.90;;;;;;4964761;28;20254;-83
2022/03/08 09:52:50;;;;;;;10.90;10.60;;;7.80;99.90;;;;;;4964948;28;20242;-85
2022/03/08 09:55:20;;;;;;;10.80;10.50;;;7.60;99.90;;;;;;4966891;28;20245;-81
2022/03/08 09:57:50;;;;;;;10.83;10.53;;;7.50;99.90;;;;;;4965948;28;20714;-84
2022/03/08 10:00:19;;;;;;;10.80;10.50;;;7.40;99.90;;;;;;4964622;28;20246;-82
2022/03/08 10:02:51;;;;;;;10.50;10.20;;;7.00;99.90;;;;;;4963841;28;20245;-82
2022/03/08 10:05:27;;;;;;;10.80;10.50;;;6.80;99.90;;;;;;4963292;28;20241;-83
2022/03/08 10:08:13;;;;;;;10.63;10.33;;;6.90;99.90;;;;;;4944669;28;20241;-83
2022/03/08 10:11:05;;;;;;;10.40;10.10;;;7.20;99.90;;;;;;4943892;29;20227;-83
2022/03/08 10:13:40;;;;;;;10.70;10.40;;;7.40;99.90;;;;;;4940815;28;20235;-84
2022/03/08 10:16:15;;;;;;;10.80;10.50;;;7.60;99.90;;;;;;4944519;28;20249;-83
2022/03/08 10:18:45;;;;;;;10.90;10.60;;;7.90;99.90;;;;;;4943525;28;20273;-84
2022/03/08 10:21:33;;;;;;;10.60;10.30;;;7.80;99.90;;;;;;4943241;28;20266;-82
2022/03/08 10:24:03;;;;;;;10.40;10.10;;;8.00;99.90;;;;;;4943011;28;20243;-81
2022/03/08 10:26:44;;;;;;;10.57;10.27;;;8.10;99.90;;;;;;4943757;28;20252;-83
2022/03/08 10:29:28;;;;;;;10.50;10.20;;;8.30;99.90;;;;;;4943578;28;20235;-82
2022/03/08 10:32:08;;;;;;;10.50;10.20;;;8.30;99.90;;;;;;4955137;28;20242;-82
2022/03/08 10:34:37;;;;;;;10.40;10.10;;;8.30;99.90;;;;;;4963532;28;20230;-82
2022/03/08 10:37:13;;;;;;;10.60;10.30;;;8.40;99.90;;;;;;4962852;28;20234;-83
2022/03/08 10:39:53;;;;;;;10.47;10.17;;;8.60;99.90;;;;;;4962256;28;20241;-81
2022/03/08 10:42:29;;;;;;;10.23;9.93;;;8.60;99.90;;;;;;4962745;28;21101;-83
2022/03/08 10:45:10;;;;;;;10.17;9.87;;;8.50;99.90;;;;;;4963655;28;20237;-82
2022/03/08 10:48:03;;;;;;;10.40;10.10;;;8.70;99.90;;;;;;4964554;28;20298;-82
2022/03/08 10:50:51;;;;;;;10.30;10.00;;;8.40;99.90;;;;;;4964363;28;20290;-81
2022/03/08 10:54:07;;;;;;;10.30;10.00;;;8.50;99.90;;;;;;4973651;28;20245;-82
2022/03/08 10:56:54;;;;;;;10.40;10.10;;;8.80;99.90;;;;;;4950235;28;20321;-82
2022/03/08 10:59:27;;;;;;;10.50;10.20;;;8.90;99.90;;;;;;4961010;28;20234;-81
2022/03/08 11:01:58;;;;;;;10.60;10.30;;;9.40;99.90;;;;;;4962947;28;20250;-83
2022/03/08 11:04:29;;;;;;;10.53;10.23;;;9.90;99.90;;;;;;4963367;28;20263;-81
2022/03/08 11:06:57;;;;;;;10.30;10.00;;;9.90;99.90;;;;;;4963743;28;20234;-82
2022/03/08 11:09:25;;;;;;;9.90;9.60;;;9.90;99.90;;;;;;4962349;28;20416;-81
2022/03/08 11:11:57;;;;;;;10.03;9.73;;;9.80;99.90;;;;;;4963728;28;20269;-81
2022/03/08 11:14:35;;;;;;;9.90;9.60;;;9.90;99.90;;;;;;4962004;28;20226;-81
2022/03/08 11:17:24;;;;;;;9.80;9.50;;;9.90;99.90;;;;;;4961867;28;20242;-81
2022/03/08 11:20:04;;;;;;;10.20;9.90;;;10.00;99.90;;;;;;4960838;28;20293;-82
2022/03/08 11:22:37;;;;;;;10.00;9.70;;;10.50;99.90;;;;;;4963738;28;20237;-82
2022/03/08 11:25:15;;;;;;;10.07;9.77;;;10.90;99.90;;;;;;4969261;28;20265;-82
2022/03/08 11:27:45;;;;;;;10.23;9.93;;;11.00;99.90;;;;;;4973414;28;20233;-82
2022/03/08 11:30:52;;;;;;;10.37;10.07;;;10.40;99.90;;;;;;4983645;28;20240;-83
2022/03/08 11:34:12;;;;;;;10.17;9.87;;;10.40;99.90;;;;;;4984740;28;20237;-83
2022/03/08 11:40:11;;;;;;;10.30;10.00;;;10.80;99.90;;;;;;4981259;28;20241;-81
2022/03/08 11:42:55;;;;;;;10.47;10.17;;;11.00;99.90;;;;;;4980403;28;20292;-81
2022/03/08 11:45:48;;;;;;;10.47;10.17;;;11.10;99.90;;;;;;4979629;28;20236;-83
2022/03/08 11:48:36;;;;;;;10.60;10.30;;;11.30;99.90;;;;;;4978870;28;20225;-81
2022/03/08 11:51:13;;;;;;;10.50;10.20;;;11.10;99.90;;;;;;4979242;28;21033;-81
2022/03/08 11:53:47;;;;;;;10.97;10.67;;;11.30;99.90;;;;;;4978896;28;20245;-82
2022/03/08 11:56:21;;;;;;;10.93;10.63;;;11.50;99.90;;;;;;4979448;28;20328;-80
2022/03/08 11:58:58;;;;;;;10.90;10.60;;;11.60;99.90;;;;;;4979473;28;20232;-81
2022/03/08 12:02:56;;;;;;;11.10;10.80;;;11.70;99.90;;;;;;5006897;23;20280;-87
2022/03/08 12:10:00;;;;;;;10.70;10.40;;;11.90;99.90;;;;;;4898507;29;20267;-88
2022/03/08 12:16:39;;;;;;;10.70;10.40;;;12.70;99.80;;;;;;4929262;29;20255;-85
2022/03/08 12:35:13;;;;;;;11.00;10.70;;;12.20;99.60;;;;;;4753969;30;20336;-85
2022/03/08 12:45:32;;;;;;;10.70;10.40;;;11.80;98.80;;;;;;4804427;29;20243;-83
2022/03/08 13:39:47;;;;;;;10.83;10.53;;;12.30;93.60;;;;;;4828799;29;20241;-79
2022/03/08 13:42:15;;;;;;;11.10;10.80;;;11.90;97.70;;;;;;4874874;29;20239;-79
2022/03/08 13:56:12;;;;;;;10.53;10.23;;;12.50;93.40;;;;;;4869046;29;20309;-86
2022/03/08 14:27:55;;;;;;;10.50;10.20;;;14.60;93.10;;;;;;4819280;29;20270;-87
2022/03/08 14:30:32;;;;;;;10.20;9.90;;;14.80;91.20;;;;;;4875011;29;20245;-89
2022/03/08 15:06:36;;;;;;;;;;;;;;;;;;;;;
2022/03/08 17:47:55;;;;;;;9.07;8.77;;;7.90;99.90;;;;;;5005229;28;20236;-82
2022/03/08 17:50:49;;;;;;;9.20;8.90;;;7.90;99.90;;;;;;5008709;28;20228;-85
2022/03/08 17:53:28;;;;;;;9.30;9.00;;;7.90;99.90;;;;;;5010569;28;20232;-87
2022/03/08 18:02:24;;;;;;;8.90;8.70;;;7.80;99.20;;;;;;4992150;23;20249;-85
2022/03/08 18:05:03;;;;;;;8.90;8.70;;;7.70;99.30;;;;;;4984637;28;20239;-85
2022/03/08 18:07:31;;;;;;;8.70;8.50;;;7.70;99.20;;;;;;4984933;28;20221;-86
2022/03/08 18:10:02;;;;;;;8.90;8.70;;;7.50;98.80;;;;;;4983183;28;20260;-84
2022/03/08 18:12:33;;;;;;;8.90;8.70;;;7.30;98.50;;;;;;4983767;28;20241;-84
2022/03/08 18:15:01;;;;;;;8.90;8.70;;;7.10;98.40;;;;;;4983417;28;20241;-85
2022/03/08 18:17:40;;;;;;;8.90;8.70;;;7.00;98.30;;;;;;4984318;28;20236;-87
2022/03/08 18:20:20;;;;;;;9.17;8.87;;;6.80;98.80;;;;;;4984730;28;20233;-87
2022/03/08 18:22:48;;;;;;;9.20;8.90;;;6.70;98.50;;;;;;4982970;28;20266;-83
2022/03/08 18:25:24;;;;;;;9.20;8.90;;;6.60;98.80;;;;;;4984597;28;20288;-85
2022/03/08 18:27:54;;;;;;;8.83;8.63;;;6.50;98.50;;;;;;4983222;28;20229;-86
2022/03/08 18:30:23;;;;;;;8.87;8.67;;;6.50;98.60;;;;;;4982112;28;20307;-85
2022/03/08 18:33:02;;;;;;;8.60;8.40;;;6.40;98.70;;;;;;4982943;28;20331;-87
2022/03/08 18:35:39;;;;;;;8.90;8.70;;;6.20;99.00;;;;;;4984510;28;20385;-82
2022/03/08 18:39:22;;;;;;;9.00;8.80;;;5.90;99.60;;;;;;4984237;28;20405;-84
2022/03/08 19:08:12;;;;;;;9.40;9.10;;;5.20;99.90;;;;;;4689356;30;20316;-86
2022/03/08 19:17:35;;;;;;;9.30;9.00;;;5.20;99.90;;;;;;4915456;29;20287;-82
2022/03/08 19:20:20;;;;;;;9.00;8.80;;;5.10;99.90;;;;;;4921381;29;20399;-82
2022/03/08 19:26:15;;;;;;;8.70;8.50;;;5.10;99.90;;;;;;4930651;29;20232;-81
2022/03/08 19:28:43;;;;;;;8.83;8.63;;;5.00;99.90;;;;;;4964930;28;20298;-83
2022/03/08 19:32:05;;;;;;;9.20;8.90;;;5.00;99.90;;;;;;4978488;28;20230;-82
2022/03/08 19:34:53;;;;;;;9.40;9.10;;;4.90;99.90;;;;;;4970461;28;20236;-84
2022/03/08 19:37:23;;;;;;;9.37;9.07;;;4.70;99.90;;;;;;4974431;28;20222;-83
2022/03/08 19:39:52;;;;;;;9.33;9.03;;;4.60;99.90;;;;;;4972320;28;20229;-84